Terminal Aerodrome Forecast
Issued by NWS Buffalo, NY

Home | Current Version | Previous Version | Text Only | Print | Product List | Glossary On
Versions: 1 2 3 4 5 6 7 8 9 10 11 12 13 14 15 16 17 18 19 20 21 22 23 24 25 26 27 28 29
000
FTUS41 KBUF 190520
TAFART
TAF
KART 190520Z 1906/2006 23004KT 1 1/2SM -DZ BR OVC004
     FM191000 24006KT 3SM BR OVC008
     FM191800 25007KT P6SM OVC012
     FM192300 VRB03KT P6SM OVC020=

USA.gov is the U.S. government's official web portal to all federal, state and local government web resources and services.